createdAt,value
2022-09-25T00:02:41.770Z,13.73
2022-09-25T00:05:46.698Z,14.23
2022-09-25T00:08:49.934Z,15.40
2022-09-25T00:11:53.932Z,16.55
2022-09-25T00:14:57.227Z,18.00
2022-09-25T00:17:59.777Z,18.13
2022-09-25T00:21:01.690Z,15.33
2022-09-25T00:24:06.396Z,16.57
2022-09-25T00:27:10.280Z,19.27
2022-09-25T00:30:14.370Z,21.60
2022-09-25T00:33:16.939Z,16.50
2022-09-25T00:36:19.731Z,15.90
2022-09-25T00:39:22.533Z,13.93
2022-09-25T00:42:26.676Z,18.27
2022-09-25T00:45:29.425Z,16.13
2022-09-25T00:48:32.407Z,33.60
2022-09-25T00:51:42.980Z,16.63
2022-09-25T00:54:48.128Z,17.13
2022-09-25T00:57:54.304Z,21.47
2022-09-25T01:00:57.064Z,15.10
2022-09-25T01:04:00.411Z,17.15
2022-09-25T01:07:03.354Z,14.48
2022-09-25T01:10:08.054Z,17.60
2022-09-25T01:13:12.804Z,14.87
2022-09-25T01:16:20.368Z,13.83
2022-09-25T01:19:32.618Z,15.60
2022-09-25T01:22:47.844Z,14.67
2022-09-25T01:26:01.434Z,15.10
2022-09-25T01:29:12.426Z,16.30
2022-09-25T01:32:20.940Z,15.60
2022-09-25T01:35:30.043Z,16.33
2022-09-25T01:38:35.391Z,18.23
2022-09-25T01:41:41.521Z,17.30
2022-09-25T01:44:47.681Z,17.73
2022-09-25T01:47:52.063Z,17.70
2022-09-25T01:50:58.576Z,18.63
2022-09-25T01:54:05.163Z,17.37
2022-09-25T01:57:10.432Z,18.73
2022-09-25T02:00:18.964Z,13.13
2022-09-25T02:03:25.955Z,16.93
2022-09-25T02:06:29.092Z,13.97
2022-09-25T02:09:37.608Z,17.70
2022-09-25T02:12:43.393Z,14.43
2022-09-25T02:15:49.578Z,14.83
2022-09-25T02:19:10.269Z,12.97
2022-09-25T02:22:17.385Z,20.50
2022-09-25T02:25:21.970Z,13.77
2022-09-25T02:28:24.576Z,14.40
2022-09-25T02:31:31.094Z,15.50
2022-09-25T02:34:34.166Z,19.40
2022-09-25T02:37:36.821Z,16.55
2022-09-25T02:40:45.233Z,17.30
2022-09-25T02:43:55.764Z,17.73
2022-09-25T02:47:08.295Z,19.40
2022-09-25T02:50:17.333Z,19.87
2022-09-25T02:53:24.352Z,19.17
2022-09-25T02:56:31.096Z,20.33
2022-09-25T02:59:36.442Z,17.27
2022-09-25T03:02:41.129Z,20.53
2022-09-25T03:05:44.140Z,20.60
2022-09-25T03:08:49.379Z,21.67
2022-09-25T03:11:51.916Z,19.40
2022-09-25T03:14:54.600Z,18.23
2022-09-25T03:17:58.585Z,20.85
2022-09-25T03:21:01.218Z,20.30
2022-09-25T03:24:03.958Z,17.80
2022-09-25T03:27:06.521Z,20.60
2022-09-25T03:30:10.146Z,19.97
2022-09-25T03:33:14.486Z,17.43
2022-09-25T03:36:19.384Z,18.83
2022-09-25T03:39:22.070Z,18.20
2022-09-25T03:42:27.624Z,19.95
2022-09-25T03:45:30.278Z,19.17
2022-09-25T03:48:34.425Z,21.88
2022-09-25T03:51:37.114Z,21.63
2022-09-25T03:54:40.052Z,20.40
2022-09-25T03:57:42.922Z,18.83
2022-09-25T04:00:46.827Z,21.05
2022-09-25T04:03:51.167Z,20.10
2022-09-25T04:06:53.776Z,16.93
2022-09-25T04:09:56.278Z,22.13
2022-09-25T04:12:59.069Z,18.17
2022-09-25T04:16:03.643Z,20.40
2022-09-25T04:19:07.874Z,17.80
2022-09-25T04:22:10.516Z,15.93
2022-09-25T04:25:14.268Z,17.73
2022-09-25T04:28:16.950Z,17.77
2022-09-25T04:31:19.743Z,19.48
2022-09-25T04:34:22.740Z,20.98
2022-09-25T04:37:26.218Z,18.30
2022-09-25T04:43:32.904Z,20.40
2022-09-25T04:46:35.571Z,19.27
2022-09-25T04:49:39.714Z,19.92
2022-09-25T04:52:42.300Z,19.53
2022-09-25T04:55:46.159Z,20.40
2022-09-25T04:58:50.369Z,19.57
2022-09-25T05:01:53.163Z,19.53
2022-09-25T05:04:57.226Z,21.27
2022-09-25T05:08:01.374Z,22.40
2022-09-25T05:11:04.331Z,21.37
2022-09-25T05:14:07.534Z,20.50
2022-09-25T05:17:11.312Z,20.17
2022-09-25T05:20:16.135Z,19.10
2022-09-25T05:23:18.765Z,17.30
2022-09-25T05:26:22.544Z,18.75
2022-09-25T05:29:25.256Z,20.93
2022-09-25T05:32:27.875Z,17.77
2022-09-25T05:35:33.147Z,20.77
2022-09-25T05:38:36.855Z,21.10
2022-09-25T05:41:39.516Z,16.77
2022-09-25T05:44:42.270Z,14.40
2022-09-25T05:47:45.039Z,19.58
2022-09-25T05:50:58.846Z,16.90
2022-09-25T05:57:04.049Z,15.73
2022-09-25T06:00:09.216Z,14.95
2022-09-25T06:03:12.281Z,16.10
2022-09-25T06:06:16.256Z,14.40
2022-09-25T06:09:19.066Z,14.20
2022-09-25T06:12:23.158Z,15.02
2022-09-25T06:15:27.304Z,13.77
2022-09-25T06:18:29.981Z,12.83
2022-09-25T06:21:34.030Z,15.65
2022-09-25T06:24:36.683Z,17.93
2022-09-25T06:27:39.374Z,14.00
2022-09-25T06:30:41.985Z,13.30
2022-09-25T06:33:46.243Z,14.73
2022-09-25T06:36:50.284Z,10.67
2022-09-25T06:39:52.983Z,12.20
2022-09-25T06:42:59.040Z,13.15
2022-09-25T06:46:03.627Z,10.63
2022-09-25T06:49:06.595Z,11.37
2022-09-25T06:52:10.794Z,13.52
2022-09-25T06:55:13.369Z,10.87
2022-09-25T06:58:17.552Z,11.55
2022-09-25T07:01:20.360Z,10.60
2022-09-25T07:04:22.613Z,11.55
2022-09-25T07:07:26.810Z,11.13
2022-09-25T07:10:29.622Z,10.33
2022-09-25T07:13:35.083Z,10.10
2022-09-25T07:16:37.709Z,9.57
2022-09-25T07:19:40.416Z,12.30
2022-09-25T07:22:44.419Z,10.95
2022-09-25T07:25:47.879Z,10.83
2022-09-25T07:31:54.074Z,8.90
2022-09-25T07:34:56.726Z,8.30
2022-09-25T07:38:00.629Z,9.73
2022-09-25T07:41:03.269Z,8.73
2022-09-25T07:47:28.955Z,8.63
2022-09-25T07:50:32.775Z,10.40
2022-09-25T07:53:36.962Z,9.33
2022-09-25T07:56:39.857Z,9.63
2022-09-25T07:59:42.559Z,9.07
2022-09-25T08:02:45.467Z,10.50
2022-09-25T08:05:48.228Z,11.30
2022-09-25T08:08:52.310Z,10.55
2022-09-25T08:11:55.065Z,11.37
2022-09-25T08:14:57.890Z,10.10
2022-09-25T08:18:00.481Z,14.07
2022-09-25T08:21:03.886Z,12.57
2022-09-25T08:27:10.847Z,12.97
2022-09-25T08:30:14.101Z,11.05
2022-09-25T08:33:17.041Z,13.40
2022-09-25T08:36:19.854Z,9.98
2022-09-25T08:39:23.917Z,9.57
2022-09-25T08:42:30.574Z,10.43
2022-09-25T08:45:52.383Z,11.83
2022-09-25T08:49:06.265Z,10.53
2022-09-25T08:52:12.497Z,10.63
2022-09-25T08:55:18.409Z,11.40
2022-09-25T08:58:24.613Z,8.93
2022-09-25T09:01:29.576Z,10.07
2022-09-25T09:04:33.775Z,11.03
2022-09-25T09:07:40.241Z,9.53
2022-09-25T09:10:45.371Z,11.23
2022-09-25T09:13:51.536Z,12.53
2022-09-25T09:17:02.110Z,7.83
2022-09-25T09:20:15.762Z,10.03
2022-09-25T09:26:28.886Z,9.68
2022-09-25T09:29:41.596Z,9.00
2022-09-25T09:32:55.239Z,8.50
2022-09-25T09:39:07.641Z,10.00
2022-09-25T09:42:19.614Z,9.00
2022-09-25T09:45:28.298Z,8.73
2022-09-25T09:48:35.674Z,11.17
2022-09-25T09:51:41.985Z,7.80
2022-09-25T09:54:47.416Z,9.90
2022-09-25T09:57:53.132Z,9.10
2022-09-25T10:00:56.034Z,8.00
2022-09-25T10:04:04.414Z,10.40
2022-09-25T10:07:09.711Z,6.77
2022-09-25T10:10:15.249Z,9.10
2022-09-25T10:13:21.783Z,8.83
2022-09-25T10:16:25.156Z,10.07
2022-09-25T10:25:38.459Z,12.87
2022-09-25T10:28:44.044Z,8.47
2022-09-25T10:31:46.909Z,10.40
2022-09-25T10:34:53.456Z,7.47
2022-09-25T10:37:58.763Z,7.03
2022-09-25T10:41:04.140Z,9.90
2022-09-25T10:44:22.330Z,6.43
2022-09-25T10:47:49.066Z,7.20
2022-09-25T10:51:06.714Z,8.30
2022-09-25T10:54:13.811Z,7.73
2022-09-25T10:57:18.736Z,8.00
2022-09-25T11:00:25.078Z,10.33
2022-09-25T11:03:29.426Z,8.27
2022-09-25T11:06:34.873Z,9.93
2022-09-25T11:09:37.784Z,8.17
2022-09-25T11:12:45.298Z,13.02
2022-09-25T11:15:53.288Z,10.83
2022-09-25T11:19:08.641Z,16.30
2022-09-25T11:22:18.130Z,12.83
2022-09-25T11:25:25.693Z,15.83
2022-09-25T11:28:32.594Z,14.10
2022-09-25T11:31:39.788Z,16.43
2022-09-25T11:34:57.224Z,19.83
2022-09-25T11:38:05.427Z,23.17
2022-09-25T11:41:14.838Z,15.33
2022-09-25T11:44:27.552Z,22.90
2022-09-25T11:47:36.648Z,19.87
2022-09-25T11:50:47.896Z,13.67
2022-09-25T11:54:12.390Z,24.70
2022-09-25T11:57:24.154Z,11.63
2022-09-25T12:00:30.838Z,15.83
2022-09-25T12:03:43.377Z,16.63
2022-09-25T12:06:55.153Z,16.90
2022-09-25T12:10:08.767Z,16.27
2022-09-25T12:16:20.815Z,13.70
2022-09-25T12:19:32.507Z,16.50
2022-09-25T12:22:44.290Z,16.17
2022-09-25T12:25:56.173Z,13.33
2022-09-25T12:29:14.630Z,12.73
2022-09-25T12:32:28.586Z,17.20
2022-09-25T12:35:41.595Z,17.20
2022-09-25T12:38:50.594Z,16.25
2022-09-25T12:41:56.882Z,16.80
2022-09-25T12:45:02.506Z,14.73
2022-09-25T12:48:10.556Z,13.77
2022-09-25T12:51:18.639Z,11.13
2022-09-25T12:54:25.458Z,13.07
2022-09-25T12:57:32.174Z,12.33
2022-09-25T13:00:37.299Z,12.80
2022-09-25T13:03:45.360Z,12.77
2022-09-25T13:06:52.534Z,12.70
2022-09-25T13:09:55.255Z,11.27
2022-09-25T13:13:00.566Z,11.82
2022-09-25T13:16:03.458Z,11.30
2022-09-25T13:19:21.131Z,11.20
2022-09-25T13:22:26.430Z,11.97
2022-09-25T13:25:29.376Z,10.43
2022-09-25T13:28:34.377Z,9.75
2022-09-25T13:31:43.139Z,13.07
2022-09-25T13:34:46.189Z,11.17
2022-09-25T13:37:54.666Z,10.73
2022-09-25T13:40:56.518Z,10.83
2022-09-25T13:44:41.241Z,9.03
2022-09-25T13:48:06.071Z,9.70
2022-09-25T13:51:28.742Z,9.27
2022-09-25T13:54:34.426Z,11.50
2022-09-25T13:58:03.632Z,9.50
2022-09-25T14:01:12.821Z,11.53
2022-09-25T14:04:22.136Z,14.40
2022-09-25T14:07:26.608Z,12.37
2022-09-25T14:10:30.646Z,7.77
2022-09-25T14:13:34.956Z,9.80
2022-09-25T14:16:43.186Z,7.67
2022-09-25T14:19:48.508Z,7.53
2022-09-25T14:22:55.997Z,8.53
2022-09-25T14:26:00.818Z,7.40
2022-09-25T14:29:03.440Z,5.67
2022-09-25T14:32:36.504Z,6.65
2022-09-25T14:35:43.425Z,5.73
2022-09-25T14:38:58.909Z,6.83
2022-09-25T14:42:21.390Z,6.47
2022-09-25T14:45:41.714Z,6.57
2022-09-25T14:48:47.823Z,8.03
2022-09-25T14:51:51.562Z,10.40
2022-09-25T14:54:56.958Z,6.87
2022-09-25T14:58:01.940Z,7.60
2022-09-25T15:01:15.053Z,6.83
2022-09-25T15:04:26.958Z,5.07
2022-09-25T15:07:29.631Z,5.23
2022-09-25T15:10:34.945Z,5.68
2022-09-25T15:13:39.048Z,13.57
2022-09-25T15:17:01.060Z,4.77
2022-09-25T15:20:09.179Z,4.60
2022-09-25T15:23:17.380Z,5.33
2022-09-25T15:26:20.366Z,5.67
2022-09-25T15:29:25.748Z,5.90
2022-09-25T15:32:30.596Z,4.10
2022-09-25T15:35:33.595Z,4.87
2022-09-25T15:38:37.613Z,4.97
2022-09-25T15:41:40.330Z,5.00
2022-09-25T15:44:44.926Z,3.70
2022-09-25T15:47:53.395Z,8.73
2022-09-25T15:50:56.544Z,4.67
2022-09-25T15:54:01.352Z,4.80
2022-09-25T15:57:07.942Z,7.20
2022-09-25T16:00:36.796Z,8.57
2022-09-25T16:03:56.968Z,8.53
2022-09-25T16:06:59.631Z,5.57
2022-09-25T16:10:05.213Z,8.88
2022-09-25T16:13:20.480Z,5.60
2022-09-25T16:16:29.434Z,4.43
2022-09-25T16:19:34.578Z,3.87
2022-09-25T16:22:42.882Z,2.17
2022-09-25T16:25:46.020Z,2.30
2022-09-25T16:28:54.916Z,2.55
2022-09-25T16:32:03.823Z,1.50
2022-09-25T16:35:07.160Z,1.83
2022-09-25T16:38:27.582Z,4.18
2022-09-25T16:41:30.438Z,1.43
2022-09-25T16:44:45.077Z,2.20
2022-09-25T16:47:49.651Z,2.13
2022-09-25T16:50:52.592Z,2.10
2022-09-25T16:53:58.210Z,3.13
2022-09-25T16:57:02.381Z,1.80
2022-09-25T17:00:06.421Z,2.43
2022-09-25T17:03:11.432Z,2.30
2022-09-25T17:06:14.047Z,5.40
2022-09-25T17:09:18.270Z,3.95
2022-09-25T17:12:22.918Z,3.97
2022-09-25T17:15:29.201Z,9.13
2022-09-25T17:18:33.280Z,2.97
2022-09-25T17:21:35.858Z,4.97
2022-09-25T17:24:38.659Z,2.33
2022-09-25T17:27:41.451Z,5.05
2022-09-25T17:30:45.323Z,3.13
2022-09-25T17:33:50.872Z,4.87
2022-09-25T17:36:53.653Z,4.53
2022-09-25T17:39:56.197Z,7.65
2022-09-25T17:42:58.804Z,7.47
2022-09-25T17:46:02.172Z,6.75
2022-09-25T17:49:06.228Z,10.05
2022-09-25T17:52:11.128Z,9.97
2022-09-25T17:55:17.298Z,7.80
2022-09-25T17:58:19.847Z,8.83
2022-09-25T18:01:23.753Z,9.87
2022-09-25T18:04:28.067Z,8.53
2022-09-25T18:07:33.715Z,10.10
2022-09-25T18:10:37.224Z,10.20
2022-09-25T18:13:41.854Z,9.07
2022-09-25T18:16:45.938Z,10.10
2022-09-25T18:20:07.368Z,9.93
2022-09-25T18:23:10.132Z,11.47
2022-09-25T18:26:12.893Z,10.73
2022-09-25T18:29:17.064Z,12.95
2022-09-25T18:32:19.763Z,8.50
2022-09-25T18:35:24.580Z,12.18
2022-09-25T18:38:27.302Z,14.07
2022-09-25T18:41:31.110Z,10.98
2022-09-25T18:44:42.234Z,13.27
2022-09-25T18:47:46.498Z,15.10
2022-09-25T18:50:51.501Z,13.17
2022-09-25T18:53:56.641Z,12.03
2022-09-25T18:56:59.451Z,13.80
2022-09-25T19:00:02.742Z,15.57
2022-09-25T19:03:06.079Z,24.52
2022-09-25T19:12:20.476Z,17.13
2022-09-25T19:15:25.028Z,16.10
2022-09-25T19:18:27.883Z,17.10
2022-09-25T19:21:33.153Z,16.58
2022-09-25T19:24:38.238Z,20.43
2022-09-25T19:27:41.096Z,16.27
2022-09-25T19:30:44.498Z,19.25
2022-09-25T19:33:48.133Z,17.30
2022-09-25T19:40:14.859Z,17.13
2022-09-25T19:43:18.212Z,16.23
2022-09-25T19:46:22.383Z,18.50
2022-09-25T19:49:25.590Z,15.47
2022-09-25T19:52:30.141Z,15.85
2022-09-25T19:55:37.070Z,15.13
2022-09-25T19:58:40.008Z,17.67
2022-09-25T20:01:43.962Z,16.77
2022-09-25T20:04:48.190Z,20.70
2022-09-25T20:07:52.615Z,15.27
2022-09-25T20:10:55.276Z,14.00
2022-09-25T20:13:58.460Z,16.23
2022-09-25T20:17:02.818Z,15.07
2022-09-25T20:20:07.731Z,16.93
2022-09-25T20:23:11.998Z,13.95
2022-09-25T20:26:16.547Z,19.77
2022-09-25T20:29:19.713Z,15.50
2022-09-25T20:32:22.302Z,15.63
2022-09-25T20:35:24.988Z,19.70
2022-09-25T20:38:29.354Z,16.52
2022-09-25T20:41:32.239Z,17.83
2022-09-25T20:44:34.918Z,19.48
2022-09-25T20:47:45.819Z,19.38
2022-09-25T20:50:51.183Z,17.43
2022-09-25T20:53:57.994Z,12.87
2022-09-25T20:57:00.796Z,15.47
2022-09-25T21:00:04.197Z,15.15
2022-09-25T21:03:07.221Z,15.73
2022-09-25T21:06:12.081Z,10.65
2022-09-25T21:09:20.412Z,13.50
2022-09-25T21:12:23.024Z,13.13
2022-09-25T21:15:27.790Z,12.97
2022-09-25T21:18:30.522Z,12.97
2022-09-25T21:21:34.400Z,17.70
2022-09-25T21:24:39.536Z,10.90
2022-09-25T21:27:42.308Z,11.00
2022-09-25T21:30:44.973Z,12.30
2022-09-25T21:33:47.768Z,10.25
2022-09-25T21:36:50.590Z,11.50
2022-09-25T21:39:54.658Z,12.55
2022-09-25T21:42:57.244Z,10.73
2022-09-25T21:46:00.598Z,13.97
2022-09-25T21:49:05.141Z,10.70
2022-09-25T21:52:08.757Z,10.97
2022-09-25T21:55:12.863Z,8.48
2022-09-25T21:58:16.200Z,9.23
2022-09-25T22:01:20.629Z,8.00
2022-09-25T22:04:23.238Z,11.27
2022-09-25T22:07:25.994Z,12.67
2022-09-25T22:10:30.967Z,8.55
2022-09-25T22:13:35.507Z,13.00
2022-09-25T22:16:39.802Z,14.30
2022-09-25T22:19:42.509Z,10.13
2022-09-25T22:22:48.969Z,12.32
2022-09-25T22:25:53.074Z,14.13
2022-09-25T22:28:56.205Z,13.50
2022-09-25T22:31:58.933Z,9.25
2022-09-25T22:35:01.602Z,11.90
2022-09-25T22:38:04.665Z,10.27
2022-09-25T22:41:11.180Z,11.13
2022-09-25T22:44:13.921Z,10.83
2022-09-25T22:47:16.469Z,7.70
2022-09-25T22:50:19.097Z,7.40
2022-09-25T22:53:22.486Z,11.10
2022-09-25T22:56:28.979Z,11.63
2022-09-25T22:59:31.655Z,12.77
2022-09-25T23:02:34.353Z,9.02
2022-09-25T23:05:37.427Z,15.50
2022-09-25T23:08:39.981Z,11.38
2022-09-25T23:11:44.403Z,13.73
2022-09-25T23:14:47.067Z,16.83
2022-09-25T23:17:49.686Z,11.32
2022-09-25T23:20:55.678Z,8.48
2022-09-25T23:23:59.344Z,9.23
2022-09-25T23:27:03.211Z,9.10
2022-09-25T23:30:06.570Z,8.10
2022-09-25T23:33:09.288Z,7.20
2022-09-25T23:36:13.635Z,9.70
2022-09-25T23:39:20.559Z,8.47
2022-09-25T23:42:24.574Z,8.40
2022-09-25T23:45:28.147Z,13.80
2022-09-25T23:51:33.548Z,10.30
2022-09-25T23:54:36.938Z,13.30
2022-09-25T23:57:40.935Z,7.57
